sensor_id;sensor_type;location;lat;lon;timestamp;pressure;altitude;pressure_sealevel;temperature
56286;BMP180;42191;47.562;9.686;2023-05-10T00:00:43;96355.00;;;18.80
56286;BMP180;42191;47.562;9.686;2023-05-10T00:03:09;96342.00;;;18.90
56286;BMP180;42191;47.562;9.686;2023-05-10T00:05:35;96352.00;;;18.90
56286;BMP180;42191;47.562;9.686;2023-05-10T00:08:01;96342.00;;;18.90
56286;BMP180;42191;47.562;9.686;2023-05-10T00:10:27;96347.00;;;18.90
56286;BMP180;42191;47.562;9.686;2023-05-10T00:12:53;96341.00;;;18.90
56286;BMP180;42191;47.562;9.686;2023-05-10T00:15:19;96354.00;;;18.90
56286;BMP180;42191;47.562;9.686;2023-05-10T00:17:45;96352.00;;;18.90
56286;BMP180;42191;47.562;9.686;2023-05-10T00:20:11;96342.00;;;18.90
56286;BMP180;42191;47.562;9.686;2023-05-10T00:22:38;96334.00;;;18.90
56286;BMP180;42191;47.562;9.686;2023-05-10T00:25:04;96350.00;;;18.90
56286;BMP180;42191;47.562;9.686;2023-05-10T00:27:30;96355.00;;;18.90
56286;BMP180;42191;47.562;9.686;2023-05-10T00:29:56;96367.00;;;18.80
56286;BMP180;42191;47.562;9.686;2023-05-10T00:32:22;96389.00;;;18.70
56286;BMP180;42191;47.562;9.686;2023-05-10T00:34:48;96379.00;;;18.50
56286;BMP180;42191;47.562;9.686;2023-05-10T00:37:14;96389.00;;;18.30
56286;BMP180;42191;47.562;9.686;2023-05-10T00:39:40;96387.00;;;18.10
56286;BMP180;42191;47.562;9.686;2023-05-10T00:42:07;96375.00;;;18.00
56286;BMP180;42191;47.562;9.686;2023-05-10T00:44:33;96389.00;;;17.90
56286;BMP180;42191;47.562;9.686;2023-05-10T00:46:59;96396.00;;;17.80
56286;BMP180;42191;47.562;9.686;2023-05-10T00:49:26;96386.00;;;17.80
56286;BMP180;42191;47.562;9.686;2023-05-10T00:51:52;96385.00;;;17.70
56286;BMP180;42191;47.562;9.686;2023-05-10T00:54:18;96390.00;;;17.60
56286;BMP180;42191;47.562;9.686;2023-05-10T00:56:45;96389.00;;;17.60
56286;BMP180;42191;47.562;9.686;2023-05-10T00:59:15;96389.00;;;17.50
56286;BMP180;42191;47.562;9.686;2023-05-10T01:01:43;96396.00;;;17.50
56286;BMP180;42191;47.562;9.686;2023-05-10T01:04:11;96387.00;;;17.50
56286;BMP180;42191;47.562;9.686;2023-05-10T01:06:39;96389.00;;;17.40
56286;BMP180;42191;47.562;9.686;2023-05-10T01:09:05;96402.00;;;17.40
56286;BMP180;42191;47.562;9.686;2023-05-10T01:11:33;96396.00;;;17.30
56286;BMP180;42191;47.562;9.686;2023-05-10T01:14:01;96397.00;;;17.30
56286;BMP180;42191;47.562;9.686;2023-05-10T01:16:29;96398.00;;;17.20
56286;BMP180;42191;47.562;9.686;2023-05-10T01:18:55;96407.00;;;17.20
56286;BMP180;42191;47.562;9.686;2023-05-10T01:37:52;96414.00;;;16.80
56286;BMP180;42191;47.562;9.686;2023-05-10T01:40:39;96424.00;;;16.80
56286;BMP180;42191;47.562;9.686;2023-05-10T01:43:14;96423.00;;;16.80
56286;BMP180;42191;47.562;9.686;2023-05-10T01:46:02;96422.00;;;16.80
56286;BMP180;42191;47.562;9.686;2023-05-10T01:48:38;96429.00;;;16.80
56286;BMP180;42191;47.562;9.686;2023-05-10T01:51:06;96427.00;;;16.80
56286;BMP180;42191;47.562;9.686;2023-05-10T01:53:34;96438.00;;;16.80
56286;BMP180;42191;47.562;9.686;2023-05-10T01:56:03;96436.00;;;16.70
56286;BMP180;42191;47.562;9.686;2023-05-10T01:58:32;96439.00;;;16.70
56286;BMP180;42191;47.562;9.686;2023-05-10T02:01:03;96444.00;;;16.70
56286;BMP180;42191;47.562;9.686;2023-05-10T02:03:31;96441.00;;;16.70
56286;BMP180;42191;47.562;9.686;2023-05-10T02:05:58;96438.00;;;16.70
56286;BMP180;42191;47.562;9.686;2023-05-10T02:08:25;96444.00;;;16.70
56286;BMP180;42191;47.562;9.686;2023-05-10T02:10:54;96443.00;;;16.70
56286;BMP180;42191;47.562;9.686;2023-05-10T02:13:22;96442.00;;;16.70
56286;BMP180;42191;47.562;9.686;2023-05-10T02:15:49;96448.00;;;16.70
56286;BMP180;42191;47.562;9.686;2023-05-10T02:18:17;96443.00;;;16.70
56286;BMP180;42191;47.562;9.686;2023-05-10T02:20:46;96436.00;;;16.70
56286;BMP180;42191;47.562;9.686;2023-05-10T02:23:13;96445.00;;;16.70
56286;BMP180;42191;47.562;9.686;2023-05-10T02:25:39;96449.00;;;16.70
56286;BMP180;42191;47.562;9.686;2023-05-10T02:28:07;96450.00;;;16.70
56286;BMP180;42191;47.562;9.686;2023-05-10T02:30:34;96460.00;;;16.70
56286;BMP180;42191;47.562;9.686;2023-05-10T02:33:02;96454.00;;;16.70
56286;BMP180;42191;47.562;9.686;2023-05-10T02:35:30;96445.00;;;16.70
56286;BMP180;42191;47.562;9.686;2023-05-10T02:37:57;96442.00;;;16.70
56286;BMP180;42191;47.562;9.686;2023-05-10T02:40:24;96448.00;;;16.70
56286;BMP180;42191;47.562;9.686;2023-05-10T02:42:54;96443.00;;;16.70
56286;BMP180;42191;47.562;9.686;2023-05-10T02:45:23;96444.00;;;16.80
56286;BMP180;42191;47.562;9.686;2023-05-10T02:47:52;96447.00;;;16.80
56286;BMP180;42191;47.562;9.686;2023-05-10T02:50:19;96452.00;;;16.80
56286;BMP180;42191;47.562;9.686;2023-05-10T02:52:49;96451.00;;;16.80
56286;BMP180;42191;47.562;9.686;2023-05-10T02:55:21;96440.00;;;16.80
56286;BMP180;42191;47.562;9.686;2023-05-10T02:57:59;96446.00;;;16.80
56286;BMP180;42191;47.562;9.686;2023-05-10T03:00:26;96443.00;;;16.90
56286;BMP180;42191;47.562;9.686;2023-05-10T03:02:52;96443.00;;;16.90
56286;BMP180;42191;47.562;9.686;2023-05-10T03:05:19;96455.00;;;16.90
56286;BMP180;42191;47.562;9.686;2023-05-10T03:07:46;96455.00;;;16.90
56286;BMP180;42191;47.562;9.686;2023-05-10T03:10:13;96446.00;;;16.90
56286;BMP180;42191;47.562;9.686;2023-05-10T03:19:01;96448.00;;;16.90
56286;BMP180;42191;47.562;9.686;2023-05-10T03:21:29;96450.00;;;16.90
56286;BMP180;42191;47.562;9.686;2023-05-10T03:24:03;96448.00;;;16.90
56286;BMP180;42191;47.562;9.686;2023-05-10T03:26:31;96447.00;;;16.90
56286;BMP180;42191;47.562;9.686;2023-05-10T03:28:58;96442.00;;;16.90
56286;BMP180;42191;47.562;9.686;2023-05-10T03:31:25;96451.00;;;16.90
56286;BMP180;42191;47.562;9.686;2023-05-10T03:33:52;96445.00;;;16.90
56286;BMP180;42191;47.562;9.686;2023-05-10T03:36:19;96451.00;;;16.90
56286;BMP180;42191;47.562;9.686;2023-05-10T03:38:45;96450.00;;;16.90
56286;BMP180;42191;47.562;9.686;2023-05-10T03:41:11;96454.00;;;17.00
56286;BMP180;42191;47.562;9.686;2023-05-10T03:43:37;96451.00;;;17.00
56286;BMP180;42191;47.562;9.686;2023-05-10T03:46:04;96447.00;;;17.00
56286;BMP180;42191;47.562;9.686;2023-05-10T03:48:34;96455.00;;;17.00
56286;BMP180;42191;47.562;9.686;2023-05-10T03:51:00;96460.00;;;17.00
56286;BMP180;42191;47.562;9.686;2023-05-10T03:53:26;96452.00;;;17.00
56286;BMP180;42191;47.562;9.686;2023-05-10T03:55:52;96456.00;;;17.00
56286;BMP180;42191;47.562;9.686;2023-05-10T03:58:19;96454.00;;;17.10
56286;BMP180;42191;47.562;9.686;2023-05-10T04:00:45;96468.00;;;17.10
56286;BMP180;42191;47.562;9.686;2023-05-10T04:03:12;96463.00;;;17.10
56286;BMP180;42191;47.562;9.686;2023-05-10T04:05:38;96468.00;;;17.10
56286;BMP180;42191;47.562;9.686;2023-05-10T04:08:04;96465.00;;;17.10
56286;BMP180;42191;47.562;9.686;2023-05-10T04:10:31;96466.00;;;17.10
56286;BMP180;42191;47.562;9.686;2023-05-10T04:12:57;96468.00;;;17.10
56286;BMP180;42191;47.562;9.686;2023-05-10T04:15:23;96463.00;;;17.20
56286;BMP180;42191;47.562;9.686;2023-05-10T04:17:49;96466.00;;;17.20
56286;BMP180;42191;47.562;9.686;2023-05-10T04:20:16;96470.00;;;17.20
56286;BMP180;42191;47.562;9.686;2023-05-10T04:22:42;96477.00;;;17.20
56286;BMP180;42191;47.562;9.686;2023-05-10T04:25:08;96465.00;;;17.30
56286;BMP180;42191;47.562;9.686;2023-05-10T04:27:35;96471.00;;;17.40
56286;BMP180;42191;47.562;9.686;2023-05-10T04:30:01;96459.00;;;17.40
56286;BMP180;42191;47.562;9.686;2023-05-10T04:32:27;96465.00;;;17.40
56286;BMP180;42191;47.562;9.686;2023-05-10T04:34:54;96466.00;;;17.50
56286;BMP180;42191;47.562;9.686;2023-05-10T04:37:20;96479.00;;;17.50
56286;BMP180;42191;47.562;9.686;2023-05-10T04:39:47;96475.00;;;17.50
56286;BMP180;42191;47.562;9.686;2023-05-10T04:42:13;96477.00;;;17.60
56286;BMP180;42191;47.562;9.686;2023-05-10T04:44:40;96479.00;;;17.60
56286;BMP180;42191;47.562;9.686;2023-05-10T04:47:07;96474.00;;;17.60
56286;BMP180;42191;47.562;9.686;2023-05-10T04:49:33;96484.00;;;17.60
56286;BMP180;42191;47.562;9.686;2023-05-10T04:51:59;96485.00;;;17.70
56286;BMP180;42191;47.562;9.686;2023-05-10T04:54:25;96485.00;;;17.70
56286;BMP180;42191;47.562;9.686;2023-05-10T04:56:51;96479.00;;;17.70
56286;BMP180;42191;47.562;9.686;2023-05-10T04:59:18;96488.00;;;17.70
56286;BMP180;42191;47.562;9.686;2023-05-10T05:01:44;96483.00;;;17.80
56286;BMP180;42191;47.562;9.686;2023-05-10T05:04:10;96478.00;;;17.80
56286;BMP180;42191;47.562;9.686;2023-05-10T05:06:36;96483.00;;;17.90
56286;BMP180;42191;47.562;9.686;2023-05-10T05:09:02;96477.00;;;17.90
56286;BMP180;42191;47.562;9.686;2023-05-10T05:11:29;96484.00;;;18.00
56286;BMP180;42191;47.562;9.686;2023-05-10T05:13:55;96484.00;;;18.00
56286;BMP180;42191;47.562;9.686;2023-05-10T05:16:21;96475.00;;;18.00
56286;BMP180;42191;47.562;9.686;2023-05-10T05:18:47;96488.00;;;18.00
56286;BMP180;42191;47.562;9.686;2023-05-10T05:21:17;96484.00;;;18.00
56286;BMP180;42191;47.562;9.686;2023-05-10T05:23:43;96494.00;;;18.00
56286;BMP180;42191;47.562;9.686;2023-05-10T05:26:09;96492.00;;;18.00
56286;BMP180;42191;47.562;9.686;2023-05-10T05:28:36;96493.00;;;18.00
56286;BMP180;42191;47.562;9.686;2023-05-10T05:31:06;96496.00;;;18.00
56286;BMP180;42191;47.562;9.686;2023-05-10T05:33:36;96500.00;;;18.10
56286;BMP180;42191;47.562;9.686;2023-05-10T05:36:03;96499.00;;;18.00
56286;BMP180;42191;47.562;9.686;2023-05-10T05:38:29;96513.00;;;18.10
56286;BMP180;42191;47.562;9.686;2023-05-10T05:40:56;96509.00;;;18.10
56286;BMP180;42191;47.562;9.686;2023-05-10T05:43:22;96506.00;;;18.00
56286;BMP180;42191;47.562;9.686;2023-05-10T05:45:48;96508.00;;;18.00
56286;BMP180;42191;47.562;9.686;2023-05-10T05:48:14;96508.00;;;18.00
56286;BMP180;42191;47.562;9.686;2023-05-10T05:50:40;96513.00;;;18.10
56286;BMP180;42191;47.562;9.686;2023-05-10T05:53:07;96511.00;;;18.00
56286;BMP180;42191;47.562;9.686;2023-05-10T05:55:33;96516.00;;;18.10
56286;BMP180;42191;47.562;9.686;2023-05-10T05:58:00;96518.00;;;18.10
56286;BMP180;42191;47.562;9.686;2023-05-10T06:00:26;96518.00;;;18.10
56286;BMP180;42191;47.562;9.686;2023-05-10T06:02:52;96517.00;;;18.10
56286;BMP180;42191;47.562;9.686;2023-05-10T06:05:18;96516.00;;;18.10
56286;BMP180;42191;47.562;9.686;2023-05-10T06:07:44;96521.00;;;18.10
56286;BMP180;42191;47.562;9.686;2023-05-10T06:10:10;96527.00;;;18.20
56286;BMP180;42191;47.562;9.686;2023-05-10T06:12:37;96531.00;;;18.20
56286;BMP180;42191;47.562;9.686;2023-05-10T06:15:03;96531.00;;;18.20
56286;BMP180;42191;47.562;9.686;2023-05-10T06:17:30;96528.00;;;18.20
56286;BMP180;42191;47.562;9.686;2023-05-10T06:19:56;96542.00;;;18.20
56286;BMP180;42191;47.562;9.686;2023-05-10T06:22:22;96536.00;;;18.20
56286;BMP180;42191;47.562;9.686;2023-05-10T06:24:49;96540.00;;;18.20
56286;BMP180;42191;47.562;9.686;2023-05-10T06:27:15;96538.00;;;18.20
56286;BMP180;42191;47.562;9.686;2023-05-10T06:29:41;96536.00;;;18.20
56286;BMP180;42191;47.562;9.686;2023-05-10T06:32:07;96548.00;;;18.20
56286;BMP180;42191;47.562;9.686;2023-05-10T06:34:33;96552.00;;;18.20
56286;BMP180;42191;47.562;9.686;2023-05-10T06:37:00;96555.00;;;18.20
56286;BMP180;42191;47.562;9.686;2023-05-10T06:39:26;96560.00;;;18.20
56286;BMP180;42191;47.562;9.686;2023-05-10T06:41:52;96549.00;;;18.10
56286;BMP180;42191;47.562;9.686;2023-05-10T06:44:18;96550.00;;;18.10
56286;BMP180;42191;47.562;9.686;2023-05-10T06:46:44;96549.00;;;18.10
56286;BMP180;42191;47.562;9.686;2023-05-10T06:49:10;96558.00;;;18.10
56286;BMP180;42191;47.562;9.686;2023-05-10T06:51:36;96550.00;;;18.10
56286;BMP180;42191;47.562;9.686;2023-05-10T06:54:02;96559.00;;;18.20
56286;BMP180;42191;47.562;9.686;2023-05-10T06:56:29;96551.00;;;18.20
56286;BMP180;42191;47.562;9.686;2023-05-10T06:58:55;96560.00;;;18.20
56286;BMP180;42191;47.562;9.686;2023-05-10T07:01:21;96557.00;;;18.20
56286;BMP180;42191;47.562;9.686;2023-05-10T07:03:47;96563.00;;;18.30
56286;BMP180;42191;47.562;9.686;2023-05-10T07:06:13;96560.00;;;18.30
56286;BMP180;42191;47.562;9.686;2023-05-10T07:08:39;96560.00;;;18.30
56286;BMP180;42191;47.562;9.686;2023-05-10T07:11:07;96565.00;;;18.40
56286;BMP180;42191;47.562;9.686;2023-05-10T07:13:33;96570.00;;;18.40
56286;BMP180;42191;47.562;9.686;2023-05-10T07:16:00;96574.00;;;18.30
56286;BMP180;42191;47.562;9.686;2023-05-10T07:18:27;96569.00;;;18.20
56286;BMP180;42191;47.562;9.686;2023-05-10T07:20:54;96575.00;;;18.20
56286;BMP180;42191;47.562;9.686;2023-05-10T07:23:20;96570.00;;;18.10
56286;BMP180;42191;47.562;9.686;2023-05-10T07:25:49;96576.00;;;18.10
56286;BMP180;42191;47.562;9.686;2023-05-10T07:28:17;96572.00;;;18.10
56286;BMP180;42191;47.562;9.686;2023-05-10T07:30:43;96580.00;;;18.00
56286;BMP180;42191;47.562;9.686;2023-05-10T07:33:12;96580.00;;;18.00
56286;BMP180;42191;47.562;9.686;2023-05-10T07:35:38;96592.00;;;18.00
56286;BMP180;42191;47.562;9.686;2023-05-10T07:38:05;96582.00;;;18.00
56286;BMP180;42191;47.562;9.686;2023-05-10T07:40:32;96585.00;;;17.90
56286;BMP180;42191;47.562;9.686;2023-05-10T07:42:58;96580.00;;;17.90
56286;BMP180;42191;47.562;9.686;2023-05-10T07:45:25;96583.00;;;17.90
56286;BMP180;42191;47.562;9.686;2023-05-10T07:47:51;96590.00;;;17.90
56286;BMP180;42191;47.562;9.686;2023-05-10T07:50:17;96582.00;;;17.90
56286;BMP180;42191;47.562;9.686;2023-05-10T07:52:44;96585.00;;;17.90
56286;BMP180;42191;47.562;9.686;2023-05-10T07:55:10;96580.00;;;17.90
56286;BMP180;42191;47.562;9.686;2023-05-10T07:57:37;96583.00;;;17.90
56286;BMP180;42191;47.562;9.686;2023-05-10T08:00:03;96586.00;;;17.90
56286;BMP180;42191;47.562;9.686;2023-05-10T08:02:30;96596.00;;;18.00
56286;BMP180;42191;47.562;9.686;2023-05-10T08:04:56;96588.00;;;18.00
56286;BMP180;42191;47.562;9.686;2023-05-10T08:07:24;96581.00;;;18.00
56286;BMP180;42191;47.562;9.686;2023-05-10T08:09:50;96582.00;;;18.10
56286;BMP180;42191;47.562;9.686;2023-05-10T08:12:16;96590.00;;;18.10
56286;BMP180;42191;47.562;9.686;2023-05-10T08:14:43;96601.00;;;18.20
56286;BMP180;42191;47.562;9.686;2023-05-10T08:17:09;96593.00;;;18.20
56286;BMP180;42191;47.562;9.686;2023-05-10T08:19:35;96596.00;;;18.20
56286;BMP180;42191;47.562;9.686;2023-05-10T08:22:01;96594.00;;;18.20
56286;BMP180;42191;47.562;9.686;2023-05-10T08:24:27;96593.00;;;18.20
56286;BMP180;42191;47.562;9.686;2023-05-10T08:26:53;96600.00;;;18.30
56286;BMP180;42191;47.562;9.686;2023-05-10T08:29:19;96599.00;;;18.30
56286;BMP180;42191;47.562;9.686;2023-05-10T08:31:45;96595.00;;;18.30
56286;BMP180;42191;47.562;9.686;2023-05-10T08:34:12;96594.00;;;18.30
56286;BMP180;42191;47.562;9.686;2023-05-10T08:36:38;96603.00;;;18.40
56286;BMP180;42191;47.562;9.686;2023-05-10T08:39:04;96612.00;;;18.40
56286;BMP180;42191;47.562;9.686;2023-05-10T08:41:30;96594.00;;;18.40
56286;BMP180;42191;47.562;9.686;2023-05-10T08:43:59;96598.00;;;18.50
56286;BMP180;42191;47.562;9.686;2023-05-10T08:46:29;96596.00;;;18.60
56286;BMP180;42191;47.562;9.686;2023-05-10T08:48:58;96604.00;;;18.60
56286;BMP180;42191;47.562;9.686;2023-05-10T08:51:27;96600.00;;;18.70
56286;BMP180;42191;47.562;9.686;2023-05-10T08:53:55;96601.00;;;18.70
56286;BMP180;42191;47.562;9.686;2023-05-10T08:56:22;96611.00;;;18.80
56286;BMP180;42191;47.562;9.686;2023-05-10T08:58:48;96608.00;;;18.90
56286;BMP180;42191;47.562;9.686;2023-05-10T09:01:16;96613.00;;;19.00
56286;BMP180;42191;47.562;9.686;2023-05-10T09:03:45;96620.00;;;19.00
56286;BMP180;42191;47.562;9.686;2023-05-10T09:06:13;96618.00;;;19.10
56286;BMP180;42191;47.562;9.686;2023-05-10T09:08:41;96613.00;;;19.20
56286;BMP180;42191;47.562;9.686;2023-05-10T09:11:08;96615.00;;;19.30
56286;BMP180;42191;47.562;9.686;2023-05-10T09:13:35;96621.00;;;19.30
56286;BMP180;42191;47.562;9.686;2023-05-10T09:16:02;96618.00;;;19.40
56286;BMP180;42191;47.562;9.686;2023-05-10T09:18:28;96619.00;;;19.40
56286;BMP180;42191;47.562;9.686;2023-05-10T09:20:55;96622.00;;;19.40
56286;BMP180;42191;47.562;9.686;2023-05-10T09:23:21;96629.00;;;19.40
56286;BMP180;42191;47.562;9.686;2023-05-10T09:25:47;96620.00;;;19.40
56286;BMP180;42191;47.562;9.686;2023-05-10T09:28:13;96622.00;;;19.40
56286;BMP180;42191;47.562;9.686;2023-05-10T09:30:39;96622.00;;;19.40
56286;BMP180;42191;47.562;9.686;2023-05-10T09:33:06;96626.00;;;19.30
56286;BMP180;42191;47.562;9.686;2023-05-10T09:35:33;96633.00;;;19.30
56286;BMP180;42191;47.562;9.686;2023-05-10T09:38:05;96628.00;;;19.40
56286;BMP180;42191;47.562;9.686;2023-05-10T09:40:32;96634.00;;;19.40
56286;BMP180;42191;47.562;9.686;2023-05-10T09:45:33;96619.00;;;19.40
56286;BMP180;42191;47.562;9.686;2023-05-10T09:48:00;96627.00;;;19.40
56286;BMP180;42191;47.562;9.686;2023-05-10T09:50:28;96624.00;;;19.40
56286;BMP180;42191;47.562;9.686;2023-05-10T09:53:01;96622.00;;;19.40
56286;BMP180;42191;47.562;9.686;2023-05-10T09:55:42;96628.00;;;19.50
56286;BMP180;42191;47.562;9.686;2023-05-10T09:58:12;96629.00;;;19.50
56286;BMP180;42191;47.562;9.686;2023-05-10T10:00:40;96635.00;;;19.60
56286;BMP180;42191;47.562;9.686;2023-05-10T10:03:11;96625.00;;;19.60
56286;BMP180;42191;47.562;9.686;2023-05-10T10:05:41;96638.00;;;19.70
56286;BMP180;42191;47.562;9.686;2023-05-10T10:08:08;96634.00;;;19.70
56286;BMP180;42191;47.562;9.686;2023-05-10T10:10:34;96627.00;;;19.70
56286;BMP180;42191;47.562;9.686;2023-05-10T10:13:02;96630.00;;;19.70
56286;BMP180;42191;47.562;9.686;2023-05-10T10:15:28;96638.00;;;19.70
56286;BMP180;42191;47.562;9.686;2023-05-10T10:17:54;96634.00;;;19.80
56286;BMP180;42191;47.562;9.686;2023-05-10T10:20:21;96635.00;;;19.80
56286;BMP180;42191;47.562;9.686;2023-05-10T10:22:48;96633.00;;;19.80
56286;BMP180;42191;47.562;9.686;2023-05-10T10:25:19;96639.00;;;19.80
56286;BMP180;42191;47.562;9.686;2023-05-10T10:30:46;96642.00;;;19.80
56286;BMP180;42191;47.562;9.686;2023-05-10T10:33:55;96637.00;;;19.70
56286;BMP180;42191;47.562;9.686;2023-05-10T10:36:23;96639.00;;;19.70
56286;BMP180;42191;47.562;9.686;2023-05-10T10:38:59;96636.00;;;19.70
56286;BMP180;42191;47.562;9.686;2023-05-10T10:41:31;96637.00;;;19.70
56286;BMP180;42191;47.562;9.686;2023-05-10T10:50:02;96628.00;;;19.80
56286;BMP180;42191;47.562;9.686;2023-05-10T10:52:35;96628.00;;;19.80
56286;BMP180;42191;47.562;9.686;2023-05-10T10:55:10;96634.00;;;19.80
56286;BMP180;42191;47.562;9.686;2023-05-10T10:57:47;96626.00;;;19.80
56286;BMP180;42191;47.562;9.686;2023-05-10T11:00:21;96625.00;;;19.80
56286;BMP180;42191;47.562;9.686;2023-05-10T11:02:49;96626.00;;;19.80
56286;BMP180;42191;47.562;9.686;2023-05-10T11:08:08;96615.00;;;19.80
56286;BMP180;42191;47.562;9.686;2023-05-10T11:10:35;96635.00;;;19.80
56286;BMP180;42191;47.562;9.686;2023-05-10T11:13:02;96632.00;;;19.70
56286;BMP180;42191;47.562;9.686;2023-05-10T11:15:33;96628.00;;;19.70
56286;BMP180;42191;47.562;9.686;2023-05-10T11:18:00;96628.00;;;19.70
56286;BMP180;42191;47.562;9.686;2023-05-10T11:20:33;96631.00;;;19.70
56286;BMP180;42191;47.562;9.686;2023-05-10T11:23:14;96630.00;;;19.80
56286;BMP180;42191;47.562;9.686;2023-05-10T11:25:45;96632.00;;;19.80
56286;BMP180;42191;47.562;9.686;2023-05-10T11:28:13;96635.00;;;19.90
56286;BMP180;42191;47.562;9.686;2023-05-10T11:30:41;96637.00;;;19.90
56286;BMP180;42191;47.562;9.686;2023-05-10T11:33:08;96642.00;;;20.00
56286;BMP180;42191;47.562;9.686;2023-05-10T11:35:38;96634.00;;;20.00
56286;BMP180;42191;47.562;9.686;2023-05-10T11:38:10;96639.00;;;20.00
56286;BMP180;42191;47.562;9.686;2023-05-10T11:40:37;96643.00;;;20.00
56286;BMP180;42191;47.562;9.686;2023-05-10T11:43:04;96638.00;;;20.10
56286;BMP180;42191;47.562;9.686;2023-05-10T11:45:35;96634.00;;;20.10
56286;BMP180;42191;47.562;9.686;2023-05-10T11:48:01;96637.00;;;20.20
56286;BMP180;42191;47.562;9.686;2023-05-10T11:50:28;96634.00;;;20.30
56286;BMP180;42191;47.562;9.686;2023-05-10T11:52:56;96632.00;;;20.30
56286;BMP180;42191;47.562;9.686;2023-05-10T11:55:22;96638.00;;;20.40
56286;BMP180;42191;47.562;9.686;2023-05-10T11:57:59;96647.00;;;20.50
56286;BMP180;42191;47.562;9.686;2023-05-10T12:00:25;96645.00;;;20.50
56286;BMP180;42191;47.562;9.686;2023-05-10T12:02:51;96649.00;;;20.60
56286;BMP180;42191;47.562;9.686;2023-05-10T12:05:18;96647.00;;;20.60
56286;BMP180;42191;47.562;9.686;2023-05-10T12:07:44;96659.00;;;20.60
56286;BMP180;42191;47.562;9.686;2023-05-10T12:10:12;96645.00;;;20.60
56286;BMP180;42191;47.562;9.686;2023-05-10T12:12:46;96648.00;;;20.60
56286;BMP180;42191;47.562;9.686;2023-05-10T12:15:20;96641.00;;;20.60
56286;BMP180;42191;47.562;9.686;2023-05-10T12:17:47;96646.00;;;20.60
56286;BMP180;42191;47.562;9.686;2023-05-10T12:20:24;96649.00;;;20.60
56286;BMP180;42191;47.562;9.686;2023-05-10T12:22:57;96644.00;;;20.60
56286;BMP180;42191;47.562;9.686;2023-05-10T12:25:29;96645.00;;;20.70
56286;BMP180;42191;47.562;9.686;2023-05-10T12:27:57;96651.00;;;20.70
56286;BMP180;42191;47.562;9.686;2023-05-10T12:30:28;96642.00;;;20.70
56286;BMP180;42191;47.562;9.686;2023-05-10T12:35:32;96658.00;;;20.70
56286;BMP180;42191;47.562;9.686;2023-05-10T12:37:58;96654.00;;;20.70
56286;BMP180;42191;47.562;9.686;2023-05-10T12:40:25;96666.00;;;20.70
56286;BMP180;42191;47.562;9.686;2023-05-10T12:42:51;96660.00;;;20.60
56286;BMP180;42191;47.562;9.686;2023-05-10T12:45:18;96666.00;;;20.70
56286;BMP180;42191;47.562;9.686;2023-05-10T12:47:44;96666.00;;;20.60
56286;BMP180;42191;47.562;9.686;2023-05-10T12:50:10;96664.00;;;20.60
56286;BMP180;42191;47.562;9.686;2023-05-10T12:52:37;96662.00;;;20.60
56286;BMP180;42191;47.562;9.686;2023-05-10T12:55:03;96667.00;;;20.60
56286;BMP180;42191;47.562;9.686;2023-05-10T12:57:29;96664.00;;;20.60
56286;BMP180;42191;47.562;9.686;2023-05-10T12:59:56;96659.00;;;20.60
56286;BMP180;42191;47.562;9.686;2023-05-10T13:02:22;96664.00;;;20.60
56286;BMP180;42191;47.562;9.686;2023-05-10T13:04:49;96659.00;;;20.70
56286;BMP180;42191;47.562;9.686;2023-05-10T13:07:15;96652.00;;;20.70
56286;BMP180;42191;47.562;9.686;2023-05-10T13:09:41;96647.00;;;20.70
56286;BMP180;42191;47.562;9.686;2023-05-10T13:12:07;96647.00;;;20.70
56286;BMP180;42191;47.562;9.686;2023-05-10T13:14:33;96648.00;;;20.80
56286;BMP180;42191;47.562;9.686;2023-05-10T13:17:00;96652.00;;;20.80
56286;BMP180;42191;47.562;9.686;2023-05-10T13:19:26;96652.00;;;20.80
56286;BMP180;42191;47.562;9.686;2023-05-10T13:21:52;96652.00;;;20.90
56286;BMP180;42191;47.562;9.686;2023-05-10T13:24:18;96652.00;;;20.90
56286;BMP180;42191;47.562;9.686;2023-05-10T13:26:45;96652.00;;;20.90
56286;BMP180;42191;47.562;9.686;2023-05-10T13:29:11;96657.00;;;21.00
56286;BMP180;42191;47.562;9.686;2023-05-10T13:31:37;96646.00;;;21.00
56286;BMP180;42191;47.562;9.686;2023-05-10T13:34:04;96645.00;;;21.10
56286;BMP180;42191;47.562;9.686;2023-05-10T13:36:31;96649.00;;;21.10
56286;BMP180;42191;47.562;9.686;2023-05-10T13:38:57;96656.00;;;21.20
56286;BMP180;42191;47.562;9.686;2023-05-10T13:41:23;96653.00;;;21.30
56286;BMP180;42191;47.562;9.686;2023-05-10T13:43:49;96647.00;;;21.40
56286;BMP180;42191;47.562;9.686;2023-05-10T13:46:15;96651.00;;;21.50
56286;BMP180;42191;47.562;9.686;2023-05-10T13:48:41;96643.00;;;21.50
56286;BMP180;42191;47.562;9.686;2023-05-10T13:51:08;96649.00;;;21.60
56286;BMP180;42191;47.562;9.686;2023-05-10T13:53:34;96646.00;;;21.60
56286;BMP180;42191;47.562;9.686;2023-05-10T13:56:00;96645.00;;;21.60
56286;BMP180;42191;47.562;9.686;2023-05-10T13:58:26;96638.00;;;21.60
56286;BMP180;42191;47.562;9.686;2023-05-10T14:00:52;96638.00;;;21.50
56286;BMP180;42191;47.562;9.686;2023-05-10T14:03:18;96631.00;;;21.60
56286;BMP180;42191;47.562;9.686;2023-05-10T14:05:44;96636.00;;;21.60
56286;BMP180;42191;47.562;9.686;2023-05-10T14:08:11;96632.00;;;21.60
56286;BMP180;42191;47.562;9.686;2023-05-10T14:10:38;96628.00;;;21.60
56286;BMP180;42191;47.562;9.686;2023-05-10T14:13:05;96627.00;;;21.60
56286;BMP180;42191;47.562;9.686;2023-05-10T14:15:32;96626.00;;;21.60
56286;BMP180;42191;47.562;9.686;2023-05-10T14:17:58;96623.00;;;21.50
56286;BMP180;42191;47.562;9.686;2023-05-10T14:20:24;96626.00;;;21.50
56286;BMP180;42191;47.562;9.686;2023-05-10T14:22:50;96624.00;;;21.50
56286;BMP180;42191;47.562;9.686;2023-05-10T14:25:16;96631.00;;;21.40
56286;BMP180;42191;47.562;9.686;2023-05-10T14:27:43;96630.00;;;21.40
56286;BMP180;42191;47.562;9.686;2023-05-10T14:30:09;96621.00;;;21.40
56286;BMP180;42191;47.562;9.686;2023-05-10T14:32:35;96621.00;;;21.40
56286;BMP180;42191;47.562;9.686;2023-05-10T14:35:02;96619.00;;;21.30
56286;BMP180;42191;47.562;9.686;2023-05-10T14:37:29;96622.00;;;21.30
56286;BMP180;42191;47.562;9.686;2023-05-10T14:39:55;96613.00;;;21.20
56286;BMP180;42191;47.562;9.686;2023-05-10T14:42:21;96621.00;;;21.20
56286;BMP180;42191;47.562;9.686;2023-05-10T14:44:47;96624.00;;;21.20
56286;BMP180;42191;47.562;9.686;2023-05-10T14:47:13;96613.00;;;21.20
56286;BMP180;42191;47.562;9.686;2023-05-10T14:49:40;96618.00;;;21.20